createdAt,value
2018-11-10T00:00:39.022Z,14.43
2018-11-10T00:05:42.355Z,12.67
2018-11-10T00:10:45.686Z,13.47
2018-11-10T01:47:52.506Z,9.90
2018-11-10T01:52:56.598Z,8.47
2018-11-10T01:58:06.217Z,10.57
2018-11-10T03:35:11.212Z,10.10
2018-11-10T03:40:14.566Z,9.43
2018-11-10T04:48:34.385Z,7.90
2018-11-10T04:53:37.710Z,8.27
2018-11-10T04:58:41.043Z,8.20
2018-11-10T06:01:16.259Z,8.33
2018-11-10T06:06:19.595Z,9.23
2018-11-10T06:11:22.976Z,8.73
2018-11-10T06:16:26.292Z,9.53
2018-11-10T06:21:29.635Z,9.40
2018-11-10T06:26:32.973Z,9.30
2018-11-10T06:31:37.068Z,8.23
2018-11-10T06:36:40.395Z,8.07
2018-11-10T06:41:44.524Z,8.10
2018-11-10T06:46:47.850Z,8.57
2018-11-10T06:51:51.217Z,8.43
2018-11-10T06:56:54.541Z,7.80
2018-11-10T07:01:57.886Z,7.90
2018-11-10T07:07:01.991Z,7.67
2018-11-10T07:12:05.318Z,6.63
2018-11-10T07:17:08.643Z,6.70
2018-11-10T07:22:12.735Z,8.17
2018-11-10T07:27:32.978Z,8.20
2018-11-10T07:32:36.304Z,8.40
2018-11-10T07:37:40.439Z,8.03
2018-11-10T07:42:44.538Z,7.80
2018-11-10T07:47:47.863Z,7.57
2018-11-10T07:52:51.194Z,6.33
2018-11-10T07:58:12.301Z,7.40
2018-11-10T08:03:15.619Z,7.57
2018-11-10T08:08:29.826Z,8.03
2018-11-10T08:13:33.160Z,7.30
2018-11-10T08:18:36.537Z,7.13
2018-11-10T08:23:40.641Z,7.23
2018-11-10T08:28:43.967Z,6.77
2018-11-10T08:33:48.465Z,6.33
2018-11-10T08:38:51.862Z,7.13
2018-11-10T08:43:55.223Z,7.17
2018-11-10T08:48:58.666Z,7.10
2018-11-10T08:54:02.023Z,7.00
2018-11-10T08:59:06.168Z,7.93
2018-11-10T09:04:10.211Z,7.53
2018-11-10T09:09:13.640Z,8.30
2018-11-10T09:14:17.729Z,7.83
2018-11-10T09:19:21.062Z,8.13
2018-11-10T09:24:24.386Z,7.80
2018-11-10T09:29:28.064Z,7.93
2018-11-10T09:34:31.667Z,8.07
2018-11-10T09:39:34.999Z,7.97
2018-11-10T09:44:38.330Z,8.30
2018-11-10T09:49:41.669Z,8.53
2018-11-10T09:54:45.764Z,8.43
2018-11-10T09:59:49.104Z,9.13
2018-11-10T10:04:52.430Z,8.03
2018-11-10T10:09:56.523Z,7.60
2018-11-10T10:14:59.992Z,8.93
2018-11-10T10:20:03.338Z,7.27
2018-11-10T10:25:06.664Z,8.47
2018-11-10T10:30:11.069Z,7.23
2018-11-10T10:35:14.572Z,6.97
2018-11-10T10:40:18.334Z,7.83
2018-11-10T10:45:21.658Z,6.87
2018-11-10T10:50:24.992Z,8.03
2018-11-10T10:55:28.315Z,6.90
2018-11-10T11:00:32.414Z,6.73
2018-11-10T11:05:35.735Z,7.63
2018-11-10T11:10:39.061Z,7.90
2018-11-10T11:15:43.246Z,7.77
2018-11-10T11:20:46.522Z,7.63
2018-11-10T11:25:54.403Z,7.50
2018-11-10T11:30:57.760Z,6.40
2018-11-10T11:36:01.096Z,7.53
2018-11-10T11:41:04.471Z,6.53
2018-11-10T11:46:07.803Z,6.40
2018-11-10T11:51:11.147Z,6.23
2018-11-10T11:56:14.480Z,7.47
2018-11-10T12:01:17.822Z,7.03
2018-11-10T12:06:22.770Z,7.10
2018-11-10T12:11:26.870Z,7.20
2018-11-10T12:16:33.844Z,7.43
2018-11-10T12:21:37.890Z,5.17
2018-11-10T12:26:41.227Z,6.73
2018-11-10T12:31:44.600Z,7.47
2018-11-10T12:36:47.922Z,6.30
2018-11-10T12:41:51.247Z,7.87
2018-11-10T12:46:54.588Z,7.43
2018-11-10T12:51:58.696Z,6.53
2018-11-10T12:57:02.063Z,7.83
2018-11-10T13:02:05.397Z,8.63
2018-11-10T13:07:08.744Z,8.33
2018-11-10T13:12:12.139Z,8.97
2018-11-10T13:17:15.496Z,10.33
2018-11-10T13:22:18.807Z,9.27
2018-11-10T13:27:22.907Z,8.77
2018-11-10T13:32:26.230Z,7.70
2018-11-10T13:37:29.577Z,8.53
2018-11-10T13:42:32.907Z,9.73
2018-11-10T13:47:36.245Z,7.87
2018-11-10T13:52:39.952Z,9.03
2018-11-10T13:57:43.711Z,8.80
2018-11-10T14:02:47.045Z,8.83
2018-11-10T14:07:51.193Z,8.50
2018-11-10T14:12:54.540Z,8.97
2018-11-10T14:18:06.439Z,9.87
2018-11-10T14:23:09.773Z,8.23
2018-11-10T14:28:20.641Z,12.17
2018-11-10T14:33:24.032Z,11.10
2018-11-10T14:38:27.367Z,12.47
2018-11-10T14:43:30.731Z,15.53
2018-11-10T14:48:34.830Z,14.63
2018-11-10T14:53:38.168Z,17.97
2018-11-10T14:58:41.616Z,16.13
2018-11-10T15:03:44.862Z,15.70
2018-11-10T15:08:48.203Z,13.63
2018-11-10T15:13:51.552Z,15.27
2018-11-10T15:18:54.890Z,15.73
2018-11-10T15:23:58.229Z,17.60
2018-11-10T15:29:01.568Z,16.70
2018-11-10T15:34:04.908Z,16.30
2018-11-10T15:39:08.244Z,16.87
2018-11-10T15:44:11.584Z,16.73
2018-11-10T15:49:14.939Z,19.40
2018-11-10T15:54:19.064Z,17.40
2018-11-10T15:59:22.398Z,18.77
2018-11-10T16:04:25.738Z,19.37
2018-11-10T16:09:29.075Z,19.43
2018-11-10T16:14:35.996Z,20.53
2018-11-10T16:19:41.150Z,19.83
2018-11-10T16:24:45.255Z,22.03
2018-11-10T16:29:48.603Z,19.83
2018-11-10T16:34:51.936Z,21.57
2018-11-10T16:39:57.998Z,16.77
2018-11-10T16:45:01.332Z,18.07
2018-11-10T16:50:04.662Z,19.97
2018-11-10T16:55:08.067Z,18.33
2018-11-10T17:00:12.112Z,18.27
2018-11-10T17:05:24.010Z,19.10
2018-11-10T17:10:31.715Z,19.30
2018-11-10T17:15:37.713Z,20.07
2018-11-10T17:20:41.332Z,19.00
2018-11-10T17:25:48.097Z,18.53
2018-11-10T17:30:54.576Z,18.07
2018-11-10T17:35:57.916Z,17.23
2018-11-10T17:41:01.260Z,17.23
2018-11-10T17:46:04.596Z,16.37
2018-11-10T17:51:08.699Z,18.23
2018-11-10T17:56:12.056Z,15.20
2018-11-10T18:01:15.406Z,15.43
2018-11-10T18:06:18.769Z,13.87
2018-11-10T18:11:22.102Z,16.80
2018-11-10T18:16:26.378Z,13.00
2018-11-10T18:21:29.716Z,14.07
2018-11-10T18:26:33.808Z,18.83
2018-11-10T18:31:37.139Z,20.80
2018-11-10T18:36:40.492Z,18.00
2018-11-10T18:41:43.827Z,18.00
2018-11-10T18:46:47.254Z,15.47
2018-11-10T18:51:50.532Z,13.90
2018-11-10T18:56:53.888Z,14.10
2018-11-10T19:01:57.228Z,14.00
2018-11-10T19:07:00.563Z,14.37
2018-11-10T19:12:04.674Z,12.10
2018-11-10T19:17:08.787Z,12.67
2018-11-10T19:22:12.135Z,13.77
2018-11-10T19:27:15.468Z,13.00
2018-11-10T19:32:18.867Z,15.03
2018-11-10T19:37:22.166Z,14.90
2018-11-10T19:42:26.266Z,14.80
2018-11-10T19:47:33.326Z,14.37
2018-11-10T19:52:36.656Z,15.43
2018-11-10T19:57:39.984Z,15.13
2018-11-10T20:02:43.320Z,15.60
2018-11-10T20:07:46.728Z,14.43
2018-11-10T20:12:50.016Z,13.33
2018-11-10T20:17:56.936Z,14.53
2018-11-10T20:23:00.271Z,15.63
2018-11-10T20:28:04.374Z,17.43
2018-11-10T20:33:07.710Z,19.33
2018-11-10T20:43:49.002Z,18.83
2018-11-10T20:48:52.323Z,17.47
2018-11-10T20:53:55.661Z,17.20
2018-11-10T20:58:58.995Z,14.63
2018-11-10T21:04:02.339Z,14.60
2018-11-10T21:09:05.670Z,16.60
2018-11-10T21:14:09.215Z,15.43
2018-11-10T21:19:12.549Z,15.27
2018-11-10T21:24:15.878Z,16.13
2018-11-10T21:29:19.282Z,16.73
2018-11-10T21:34:22.564Z,18.10
2018-11-10T21:39:25.900Z,16.87
2018-11-10T21:44:29.995Z,17.43
2018-11-10T21:49:33.375Z,16.40
2018-11-10T21:54:36.690Z,17.17
2018-11-10T21:59:40.022Z,16.17
2018-11-10T22:04:43.360Z,16.20
2018-11-10T22:09:47.063Z,12.60
2018-11-10T22:14:50.394Z,16.83
2018-11-10T22:19:53.729Z,16.60
2018-11-10T22:24:58.542Z,14.40
2018-11-10T22:30:01.993Z,15.70
2018-11-10T22:35:05.375Z,14.17
2018-11-10T22:40:08.947Z,13.90
2018-11-10T22:45:12.415Z,12.13
2018-11-10T22:50:16.918Z,12.43
2018-11-10T22:55:20.262Z,12.20
2018-11-10T23:00:23.634Z,11.80
2018-11-10T23:05:26.970Z,11.97
2018-11-10T23:10:30.298Z,11.60
2018-11-10T23:15:33.654Z,11.77
2018-11-10T23:20:36.982Z,10.93
2018-11-10T23:25:40.335Z,12.47
2018-11-10T23:30:43.670Z,11.67
2018-11-10T23:35:47.768Z,11.03
2018-11-10T23:40:51.113Z,11.03
2018-11-10T23:45:54.439Z,11.17
2018-11-10T23:50:57.785Z,9.40
2018-11-10T23:56:01.120Z,10.07
